Aviation Digital Data Service (ADDS)

Output produced by METARs form (1651 UTC 21 January 2018)
found at http://aviationweather.gov/adds/metars/
 
KTOL 211120Z 2112/2212 19004KT 3/4SM BR OVC003 
     TEMPO 2112/2116 1/4SM -DZ FG VV001 
     FM211800 18005KT 3SM BR OVC006 
     FM212200 18004KT 3SM BR OVC003 
     FM220100 18004KT 3SM -DZ BR OVC003 
     FM220600 15004KT 5SM -RA BR OVC006